Time;durP1;ratioP1;P1;durP2;ratioP2;P2;SDS_P1;SDS_P2;PMS_P1;PMS_P2;Temp;Humidity;BMP_temperature;BMP_pressure;BME280_temperature;BME280_humidity;BME280_pressure;Samples;Min_cycle;Max_cycle;Signal;HPM_P1;HPM_P2
2022/07/17 00:01:14;;;;;;;5.00;3.47;;;;;;;16.59;69.15;98956.28;5064521;28;20218;-71
2022/07/17 00:03:40;;;;;;;5.27;3.60;;;;;;;16.60;67.78;98956.16;5067959;28;20208;-71
2022/07/17 00:06:07;;;;;;;4.30;3.90;;;;;;;16.60;67.16;98964.19;5067997;28;20222;-71
2022/07/17 00:08:34;;;;;;;5.03;4.00;;;;;;;16.68;66.56;98956.38;5065384;28;20668;-71
2022/07/17 00:11:01;;;;;;;4.67;4.23;;;;;;;16.71;66.20;98966.81;5064263;28;20578;-71
2022/07/17 00:13:27;;;;;;;5.20;4.43;;;;;;;16.81;65.58;98962.44;5067431;28;20219;-71
2022/07/17 00:15:55;;;;;;;5.93;4.30;;;;;;;16.85;65.72;98958.53;5067878;28;20208;-71
2022/07/17 00:18:22;;;;;;;5.47;4.17;;;;;;;16.84;65.52;98956.84;5065537;28;20212;-71
2022/07/17 00:20:48;;;;;;;6.00;4.60;;;;;;;16.85;65.65;98953.22;5063193;28;20236;-70
2022/07/17 00:23:15;;;;;;;4.77;4.13;;;;;;;16.83;66.04;98955.13;5067210;28;20229;-71
2022/07/17 00:25:41;;;;;;;6.50;4.47;;;;;;;16.78;66.43;98952.00;5065665;28;20231;-70
2022/07/17 00:28:08;;;;;;;4.73;4.20;;;;;;;16.76;66.76;98947.75;5066022;28;20216;-70
2022/07/17 00:30:35;;;;;;;4.97;4.30;;;;;;;16.71;67.10;98945.44;5063647;28;20333;-70
2022/07/17 00:33:03;;;;;;;5.17;4.30;;;;;;;16.65;67.33;98955.78;5066174;28;20219;-70
2022/07/17 00:35:30;;;;;;;8.00;7.10;;;;;;;16.62;67.29;98956.03;5067478;28;20218;-70
2022/07/17 00:37:56;;;;;;;8.67;7.77;;;;;;;16.60;67.17;98953.50;5063756;28;20208;-70
2022/07/17 00:40:25;;;;;;;7.70;6.80;;;;;;;16.62;67.37;98951.53;5063625;28;20208;-70
2022/07/17 00:42:53;;;;;;;8.13;6.97;;;;;;;16.59;67.75;98957.13;5066265;28;20220;-70
2022/07/17 00:45:24;;;;;;;6.97;5.97;;;;;;;16.52;68.26;98955.09;5066839;28;20243;-70
2022/07/17 00:47:55;;;;;;;6.70;6.00;;;;;;;16.47;68.31;98954.59;5065519;28;20215;-70
2022/07/17 00:50:24;;;;;;;8.20;5.50;;;;;;;16.40;68.80;98954.22;5063535;28;20265;-70
2022/07/17 00:52:50;;;;;;;6.60;5.40;;;;;;;16.25;70.23;98957.22;5046748;28;20215;-70
2022/07/17 00:55:18;;;;;;;6.77;5.83;;;;;;;16.12;71.52;98951.16;5067124;28;20218;-70
2022/07/17 00:57:47;;;;;;;6.33;5.53;;;;;;;16.03;72.17;98947.41;5064824;28;20223;-70
2022/07/17 01:00:15;;;;;;;5.17;4.67;;;;;;;16.06;71.43;98956.97;5061765;28;20212;-70
2022/07/17 01:02:41;;;;;;;6.23;4.13;;;;;;;16.10;71.17;98953.94;5048329;28;20668;-70
2022/07/17 01:05:08;;;;;;;4.30;3.87;;;;;;;16.09;71.50;98960.25;5066850;28;20243;-70
2022/07/17 01:07:36;;;;;;;6.03;4.70;;;;;;;16.13;71.56;98959.06;5064369;28;20216;-70
2022/07/17 01:10:02;;;;;;;6.60;3.97;;;;;;;16.04;71.75;98959.75;5062842;28;20220;-70
2022/07/17 01:12:29;;;;;;;5.83;4.83;;;;;;;16.05;71.44;98955.28;5066566;28;20218;-70
2022/07/17 01:14:58;;;;;;;5.30;4.23;;;;;;;16.00;71.56;98951.28;5066550;28;20216;-70
2022/07/17 01:17:25;;;;;;;5.37;4.50;;;;;;;16.04;70.95;98957.09;5062726;28;20573;-70
2022/07/17 01:19:51;;;;;;;4.37;3.97;;;;;;;16.02;70.87;98955.50;5062957;28;20218;-70
2022/07/17 01:22:19;;;;;;;4.87;4.10;;;;;;;16.02;70.37;98959.03;5066595;28;20704;-70
2022/07/17 01:24:46;;;;;;;4.33;3.90;;;;;;;16.06;70.04;98958.81;5066604;28;20234;-70
2022/07/17 01:27:13;;;;;;;4.80;3.47;;;;;;;16.04;69.98;98970.44;5064578;28;20215;-70
2022/07/17 01:29:40;;;;;;;5.83;4.20;;;;;;;15.99;70.92;98958.44;5062954;28;20223;-70
2022/07/17 01:32:07;;;;;;;5.83;4.30;;;;;;;15.88;72.24;98958.41;5065414;28;20223;-70
2022/07/17 01:34:33;;;;;;;4.67;4.13;;;;;;;15.80;72.20;98955.50;5066527;28;20584;-70
2022/07/17 01:37:00;;;;;;;4.83;4.20;;;;;;;15.72;72.39;98965.06;5056225;28;20218;-70
2022/07/17 01:42:08;;;;;;;5.20;4.70;;;;;;;15.35;74.53;98958.16;5049250;28;20215;-70
2022/07/17 01:44:35;;;;;;;6.23;4.80;;;;;;;15.19;76.13;98968.22;5064679;28;20603;-70
2022/07/17 01:47:02;;;;;;;6.20;4.70;;;;;;;15.01;77.73;98964.25;5063121;28;20220;-70
2022/07/17 01:49:28;;;;;;;6.00;4.97;;;;;;;14.84;78.80;98967.34;5063222;28;20207;-70
2022/07/17 01:51:59;;;;;;;6.43;5.83;;;;;;;14.66;80.09;98969.50;5066347;28;20242;-70
2022/07/17 01:54:26;;;;;;;6.07;5.47;;;;;;;14.58;80.63;98976.34;5066025;28;20684;-70
2022/07/17 01:56:54;;;;;;;6.27;5.37;;;;;;;14.50;81.04;98976.03;5062840;28;20220;-70
2022/07/17 01:59:20;;;;;;;6.53;5.03;;;;;;;14.44;82.02;98973.81;5063255;28;20212;-70
2022/07/17 02:01:47;;;;;;;6.37;5.70;;;;;;;14.40;82.27;98972.31;5066259;28;20207;-70
2022/07/17 02:04:13;;;;;;;7.80;5.63;;;;;;;14.26;83.38;98972.47;5065809;28;20676;-69
2022/07/17 02:06:40;;;;;;;6.87;5.57;;;;;;;14.20;83.69;98965.78;5063088;28;20220;-70
2022/07/17 02:09:06;;;;;;;8.27;5.80;;;;;;;14.08;84.45;98965.75;5060670;28;20215;-70
2022/07/17 02:11:33;;;;;;;6.30;5.70;;;;;;;14.01;85.62;98962.69;5066269;28;20208;-70
2022/07/17 02:14:01;;;;;;;7.50;5.93;;;;;;;13.93;85.69;98962.34;5066190;28;20220;-70
2022/07/17 02:16:27;;;;;;;6.67;5.67;;;;;;;13.92;86.00;98960.66;5063184;28;20219;-70
2022/07/17 02:18:53;;;;;;;6.87;6.17;;;;;;;13.85;86.50;98961.19;5062030;28;20219;-70
2022/07/17 02:21:20;;;;;;;6.60;5.70;;;;;;;13.83;87.01;98957.78;5046798;28;20239;-69
2022/07/17 02:23:47;;;;;;;9.03;6.53;;;;;;;13.79;87.71;98966.91;5065657;28;20664;-70
2022/07/17 02:26:13;;;;;;;6.50;5.90;;;;;;;13.76;87.90;98956.50;5063787;28;20333;-70
2022/07/17 02:28:40;;;;;;;7.57;5.87;;;;;;;13.73;88.71;98962.03;5062290;28;20251;-70
2022/07/17 02:31:08;;;;;;;6.07;5.47;;;;;;;13.67;89.40;98965.09;5065512;28;20216;-70
2022/07/17 02:33:34;;;;;;;7.83;5.90;;;;;;;13.66;89.52;98958.09;5065931;28;20219;-70
2022/07/17 02:36:01;;;;;;;6.80;5.53;;;;;;;13.63;90.04;98958.31;5062310;28;20327;-70
2022/07/17 02:38:28;;;;;;;7.93;5.97;;;;;;;13.58;90.70;98960.44;5061985;28;20800;-70
2022/07/17 02:40:55;;;;;;;5.97;5.37;;;;;;;13.59;90.49;98956.81;5065166;28;20211;-70
2022/07/17 02:43:21;;;;;;;5.73;5.20;;;;;;;13.61;90.24;98949.56;5066492;28;20575;-70
2022/07/17 02:45:48;;;;;;;6.70;5.27;;;;;;;13.58;90.66;98952.47;5067921;28;20246;-69
2022/07/17 02:48:16;;;;;;;6.53;5.20;;;;;;;13.56;90.92;98952.56;5065485;28;20696;-69
2022/07/17 02:50:42;;;;;;;6.77;5.33;;;;;;;13.47;91.69;98947.03;5068128;28;20218;-70
2022/07/17 02:53:09;;;;;;;5.33;4.77;;;;;;;13.40;92.07;98945.75;5069035;28;20668;-70
2022/07/17 02:55:35;;;;;;;6.00;5.10;;;;;;;13.42;91.32;98954.44;5068046;28;20226;-70
2022/07/17 02:58:03;;;;;;;6.90;5.27;;;;;;;13.40;91.37;98951.06;5065441;28;20227;-69
2022/07/17 03:00:30;;;;;;;6.03;5.43;;;;;;;13.37;91.52;98943.28;5067934;28;20234;-70
2022/07/17 03:02:57;;;;;;;6.77;5.00;;;;;;;13.36;91.50;98941.56;5067358;28;20214;-70
2022/07/17 03:05:24;;;;;;;7.53;5.87;;;;;;;13.32;92.11;98942.75;5068039;28;20704;-70
2022/07/17 03:07:51;;;;;;;7.30;5.67;;;;;;;13.29;91.81;98945.59;5065101;28;20228;-70
2022/07/17 03:10:18;;;;;;;7.17;5.33;;;;;;;13.26;91.94;98941.34;5067419;28;20411;-70
2022/07/17 03:12:44;;;;;;;5.57;5.07;;;;;;;13.21;92.53;98945.28;5069068;28;20208;-69
2022/07/17 03:15:11;;;;;;;6.10;5.50;;;;;;;13.17;93.08;98943.78;5068698;28;20214;-69
2022/07/17 03:17:38;;;;;;;7.30;5.63;;;;;;;13.13;93.30;98936.94;5065358;28;20226;-69
2022/07/17 03:20:06;;;;;;;6.10;5.50;;;;;;;13.08;93.03;98933.78;5066692;28;20669;-69
2022/07/17 03:22:34;;;;;;;6.60;5.23;;;;;;;13.08;92.68;98936.44;5068890;28;20215;-70
2022/07/17 03:25:01;;;;;;;6.20;5.60;;;;;;;13.00;93.76;98941.38;5068379;28;20239;-70
2022/07/17 03:27:27;;;;;;;5.83;5.13;;;;;;;12.95;94.00;98933.72;5063513;28;20215;-69
2022/07/17 03:29:54;;;;;;;5.90;5.40;;;;;;;12.95;93.58;98938.16;5066504;28;20274;-70
2022/07/17 03:32:21;;;;;;;6.17;5.57;;;;;;;12.96;93.86;98945.22;5068666;28;20212;-71
2022/07/17 03:34:48;;;;;;;5.67;5.07;;;;;;;12.95;94.03;98949.66;5068389;28;20215;-71
2022/07/17 03:37:15;;;;;;;6.10;5.20;;;;;;;13.02;93.84;98939.50;5056886;28;20208;-70
2022/07/17 03:39:42;;;;;;;5.80;5.13;;;;;;;13.10;93.19;98947.78;5066014;28;20231;-70
2022/07/17 03:42:09;;;;;;;6.47;5.57;;;;;;;13.10;93.20;98942.47;5068238;28;20215;-70
2022/07/17 03:44:35;;;;;;;6.00;5.40;;;;;;;13.01;93.95;98951.06;5068155;28;20218;-70
2022/07/17 03:47:02;;;;;;;5.80;5.27;;;;;;;12.94;94.48;98947.06;5064816;28;20212;-70
2022/07/17 03:49:28;;;;;;;5.80;5.30;;;;;;;12.94;94.57;98945.28;5065548;28;20317;-70
2022/07/17 03:51:55;;;;;;;5.80;5.30;;;;;;;12.92;95.01;98954.28;5068448;28;20211;-70
2022/07/17 03:54:21;;;;;;;6.17;5.40;;;;;;;12.95;95.17;98954.09;5066365;28;20207;-70
2022/07/17 03:56:49;;;;;;;6.17;5.47;;;;;;;13.00;94.74;98949.34;5064060;28;20718;-70
2022/07/17 03:59:16;;;;;;;6.77;5.97;;;;;;;13.05;94.84;98950.75;5064754;28;20219;-70
2022/07/17 04:01:42;;;;;;;8.40;5.97;;;;;;;13.05;94.83;98957.84;5068201;28;20217;-70
2022/07/17 04:04:09;;;;;;;6.33;5.73;;;;;;;13.03;95.37;98957.13;5068043;28;20207;-70
2022/07/17 04:06:35;;;;;;;6.57;5.87;;;;;;;12.97;95.65;98957.53;5065272;28;20261;-70
2022/07/17 04:09:02;;;;;;;6.37;5.73;;;;;;;12.94;96.56;98952.38;5063938;28;20226;-70
2022/07/17 04:11:28;;;;;;;6.63;6.00;;;;;;;12.89;97.96;98949.19;5067978;28;20584;-70
2022/07/17 04:13:56;;;;;;;6.40;5.67;;;;;;;12.86;99.04;98957.34;5067641;28;20218;-69
2022/07/17 04:16:23;;;;;;;6.10;5.50;;;;;;;12.94;98.68;98955.03;5065603;28;20215;-70
2022/07/17 04:18:49;;;;;;;7.33;5.93;;;;;;;12.95;99.40;98959.41;5062740;28;20216;-70
2022/07/17 04:21:16;;;;;;;5.70;5.20;;;;;;;13.03;98.84;98967.72;5067149;28;20235;-70
2022/07/17 04:23:42;;;;;;;6.27;4.70;;;;;;;13.04;97.96;98969.44;5067594;28;20207;-70
2022/07/17 04:26:09;;;;;;;4.80;4.30;;;;;;;13.13;97.47;98971.47;5065497;28;20239;-70
2022/07/17 04:28:36;;;;;;;5.20;4.70;;;;;;;13.13;97.57;98964.38;5063748;28;20582;-70
2022/07/17 04:31:04;;;;;;;5.37;4.80;;;;;;;13.20;97.05;98964.81;5066709;28;20692;-70
2022/07/17 04:33:31;;;;;;;5.17;4.67;;;;;;;13.28;96.41;98965.16;5067636;28;20238;-70
2022/07/17 04:35:57;;;;;;;6.33;4.70;;;;;;;13.36;96.13;98971.66;5065592;28;20676;-70
2022/07/17 04:38:24;;;;;;;7.23;5.23;;;;;;;13.44;95.82;98973.81;5063665;28;20262;-70
2022/07/17 04:40:50;;;;;;;5.90;5.30;;;;;;;13.53;95.31;98970.50;5066260;28;20215;-70
2022/07/17 04:43:17;;;;;;;5.60;5.00;;;;;;;13.58;95.58;98971.06;5067329;28;20261;-70
2022/07/17 04:45:43;;;;;;;5.80;5.23;;;;;;;13.64;95.28;98976.78;5064277;28;20243;-70
2022/07/17 04:48:11;;;;;;;5.37;4.87;;;;;;;13.71;95.54;98971.91;5063240;28;20670;-70
2022/07/17 04:50:38;;;;;;;6.17;5.30;;;;;;;13.88;94.44;98964.47;5065919;28;20223;-70
2022/07/17 04:53:04;;;;;;;5.83;5.23;;;;;;;14.03;93.78;98968.72;5067247;28;20222;-70
2022/07/17 04:55:31;;;;;;;7.13;5.80;;;;;;;14.05;93.03;98966.81;5066213;28;20222;-70
2022/07/17 04:57:57;;;;;;;6.27;5.67;;;;;;;14.09;93.00;98973.63;5063415;28;20212;-69
2022/07/17 05:00:24;;;;;;;6.13;5.60;;;;;;;14.21;93.33;98974.59;5064786;28;20212;-70
2022/07/17 05:02:50;;;;;;;6.80;6.10;;;;;;;14.37;93.43;98972.56;5066850;28;20207;-70
2022/07/17 05:05:18;;;;;;;6.97;5.43;;;;;;;14.53;92.23;98973.16;5066664;28;20234;-70
2022/07/17 05:07:45;;;;;;;6.10;5.50;;;;;;;14.68;90.97;98972.06;5063315;28;20265;-70
2022/07/17 05:10:11;;;;;;;6.90;5.60;;;;;;;14.87;90.18;98983.06;5064444;28;20712;-70
2022/07/17 05:12:38;;;;;;;6.13;5.10;;;;;;;15.10;88.83;98971.56;5065265;28;20208;-70
2022/07/17 05:15:05;;;;;;;6.20;5.23;;;;;;;15.45;87.25;98972.50;5066584;28;20306;-70
2022/07/17 05:17:32;;;;;;;5.93;5.33;;;;;;;16.24;82.74;98967.06;5056340;28;20207;-69
2022/07/17 05:19:58;;;;;;;5.50;4.63;;;;;;;17.36;75.52;98974.75;5064195;28;20212;-69
2022/07/17 05:22:26;;;;;;;6.00;4.90;;;;;;;18.44;70.31;98973.41;5066848;28;20235;-69
2022/07/17 05:24:53;;;;;;;5.40;4.90;;;;;;;19.42;65.64;98971.56;5066622;28;20220;-69
2022/07/17 05:27:19;;;;;;;4.93;4.50;;;;;;;20.25;62.09;98972.59;5062714;28;20244;-69
2022/07/17 05:29:46;;;;;;;5.47;4.70;;;;;;;20.97;59.04;98976.25;5063548;28;20239;-69
2022/07/17 05:32:12;;;;;;;5.97;4.57;;;;;;;21.58;56.35;98976.41;5066692;28;20225;-69
2022/07/17 05:34:39;;;;;;;5.20;4.47;;;;;;;22.12;53.66;98971.66;5066555;28;20214;-69
2022/07/17 05:37:05;;;;;;;5.53;4.90;;;;;;;22.53;51.86;98965.53;5053709;28;20689;-70
2022/07/17 05:39:33;;;;;;;5.37;4.87;;;;;;;22.97;50.82;98974.34;5063000;28;20218;-69
2022/07/17 05:41:59;;;;;;;4.83;4.43;;;;;;;23.39;49.53;98975.13;5066374;28;20234;-69
2022/07/17 05:44:26;;;;;;;5.53;4.97;;;;;;;23.76;48.05;98973.66;5066508;28;20563;-70
2022/07/17 05:46:53;;;;;;;5.07;4.67;;;;;;;24.07;47.00;98972.00;5063430;28;20231;-69
2022/07/17 05:49:19;;;;;;;5.03;4.50;;;;;;;24.02;46.41;98979.75;5062594;28;20226;-69
2022/07/17 05:51:46;;;;;;;5.40;4.63;;;;;;;24.27;45.96;98975.19;5052572;28;20684;-70
2022/07/17 05:54:12;;;;;;;5.70;4.50;;;;;;;24.51;45.84;98981.38;5060673;28;20219;-70
2022/07/17 05:56:40;;;;;;;6.37;4.03;;;;;;;24.84;45.05;98972.19;5064117;28;20237;-69
2022/07/17 05:59:06;;;;;;;4.77;4.37;;;;;;;25.07;44.14;98978.53;5062508;28;20219;-69
2022/07/17 06:01:33;;;;;;;4.10;3.80;;;;;;;25.27;43.73;98985.19;5065668;28;20211;-69
2022/07/17 06:03:59;;;;;;;5.07;4.30;;;;;;;25.41;43.71;98986.31;5064759;28;20219;-71
2022/07/17 06:06:26;;;;;;;4.30;3.90;;;;;;;25.30;43.04;98987.53;5064437;28;20634;-70
2022/07/17 06:08:53;;;;;;;4.70;4.17;;;;;;;25.24;42.66;98996.38;5062424;28;20223;-70
2022/07/17 06:11:19;;;;;;;4.60;4.20;;;;;;;25.05;42.74;98991.34;5065129;28;20691;-69
2022/07/17 06:13:47;;;;;;;4.90;3.93;;;;;;;24.90;42.87;98995.84;5065920;28;20211;-70
2022/07/17 06:16:14;;;;;;;5.43;3.87;;;;;;;25.01;42.23;99000.88;5064551;28;20222;-69
2022/07/17 06:18:40;;;;;;;4.07;3.67;;;;;;;25.50;41.76;98988.78;5063413;28;20628;-69
2022/07/17 06:21:07;;;;;;;4.47;4.03;;;;;;;25.36;41.26;98988.72;5068732;28;20624;-70
2022/07/17 06:23:34;;;;;;;3.83;3.43;;;;;;;25.14;41.23;98990.31;5070002;28;20302;-69
2022/07/17 06:26:00;;;;;;;3.97;3.57;;;;;;;25.37;40.50;98991.22;5068951;28;20243;-71
2022/07/17 06:28:27;;;;;;;3.17;2.90;;;;;;;25.38;40.04;98992.06;5065938;28;20219;-69
2022/07/17 06:30:54;;;;;;;4.73;2.90;;;;;;;25.88;38.96;99006.78;5066626;28;20208;-69
2022/07/17 06:33:21;;;;;;;5.93;3.37;;;;;;;25.98;38.77;99007.41;5069875;28;20219;-70
2022/07/17 06:35:47;;;;;;;3.40;3.10;;;;;;;26.19;38.14;99004.88;5069064;28;20230;-69
2022/07/17 06:38:14;;;;;;;3.77;3.27;;;;;;;26.54;37.54;99008.78;5059783;28;20228;-69
2022/07/17 06:40:40;;;;;;;4.10;2.60;;;;;;;26.84;36.91;99005.91;5067719;28;20226;-69
2022/07/17 06:43:07;;;;;;;3.10;2.50;;;;;;;27.19;36.96;99010.56;5069282;28;20245;-69
2022/07/17 06:45:34;;;;;;;4.63;3.30;;;;;;;27.10;36.52;99015.22;5069261;28;20583;-69
2022/07/17 06:48:02;;;;;;;3.30;3.00;;;;;;;27.08;36.64;99009.16;5059579;28;20581;-69
2022/07/17 06:50:28;;;;;;;4.17;3.17;;;;;;;27.32;36.93;99008.03;5067303;28;20218;-69
2022/07/17 06:52:55;;;;;;;4.93;2.97;;;;;;;26.79;37.13;99012.91;5065262;28;20216;-69
2022/07/17 06:55:21;;;;;;;3.03;2.70;;;;;;;26.56;37.31;99018.41;5063329;28;20223;-69
2022/07/17 06:57:48;;;;;;;3.30;2.50;;;;;;;26.69;36.74;99012.38;5065702;28;20218;-69
2022/07/17 07:00:17;;;;;;;3.10;2.80;;;;;;;27.15;37.24;99011.97;5066214;28;20216;-69
2022/07/17 07:02:44;;;;;;;2.97;2.70;;;;;;;27.13;37.15;99017.59;5069213;28;20230;-69
2022/07/17 07:05:12;;;;;;;3.33;3.03;;;;;;;26.65;37.47;99017.28;5069044;28;20211;-69
2022/07/17 07:07:39;;;;;;;2.60;2.40;;;;;;;25.77;38.10;99020.75;5065451;28;20232;-69
2022/07/17 07:10:06;;;;;;;2.57;2.37;;;;;;;24.84;39.46;99015.47;5066365;28;20218;-69
2022/07/17 07:12:33;;;;;;;3.00;2.67;;;;;;;23.44;41.62;99016.81;5069138;28;20216;-69
2022/07/17 07:14:59;;;;;;;2.83;2.40;;;;;;;22.47;44.46;99030.84;5068865;28;20219;-69
2022/07/17 07:17:26;;;;;;;4.10;2.47;;;;;;;21.78;45.18;99027.25;5065520;28;20223;-69
2022/07/17 07:19:52;;;;;;;3.10;2.80;;;;;;;21.44;46.47;99026.19;5062162;28;20216;-69
2022/07/17 07:22:20;;;;;;;3.27;2.50;;;;;;;21.21;46.73;99030.31;5064202;28;20235;-70
2022/07/17 07:24:46;;;;;;;2.50;2.30;;;;;;;21.25;47.67;99030.84;5063947;28;20217;-71
2022/07/17 07:27:13;;;;;;;3.27;2.50;;;;;;;21.32;48.80;99027.41;5062029;28;20243;-70
2022/07/17 07:29:40;;;;;;;5.47;2.60;;;;;;;21.23;48.94;99025.66;5061716;28;20591;-71
2022/07/17 07:32:06;;;;;;;3.13;2.83;;;;;;;21.17;49.26;99031.63;5065128;28;20212;-70
2022/07/17 07:34:33;;;;;;;3.27;2.87;;;;;;;21.12;50.01;99023.16;5064533;28;20207;-70
2022/07/17 07:36:59;;;;;;;3.73;2.90;;;;;;;21.23;48.78;99020.25;5056594;28;20223;-70
2022/07/17 07:39:27;;;;;;;5.47;2.77;;;;;;;21.24;48.38;99024.66;5061431;28;20226;-70
2022/07/17 07:41:53;;;;;;;3.00;2.70;;;;;;;21.30;47.90;99021.34;5051011;28;20215;-70
2022/07/17 07:44:20;;;;;;;2.53;2.27;;;;;;;21.27;46.92;99021.63;5064717;28;20216;-70
2022/07/17 07:46:46;;;;;;;2.30;2.10;;;;;;;21.38;46.43;99016.03;5061412;28;20240;-70
2022/07/17 07:49:14;;;;;;;3.73;2.23;;;;;;;21.19;46.38;99018.88;5059565;28;20208;-70
2022/07/17 07:51:41;;;;;;;2.80;2.13;;;;;;;21.29;47.67;99022.34;5064762;28;20251;-70
2022/07/17 07:54:07;;;;;;;2.53;2.20;;;;;;;21.46;47.23;99020.66;5064849;28;20219;-70
2022/07/17 07:56:36;;;;;;;2.50;2.30;;;;;;;21.59;47.85;99027.34;5060938;28;20212;-69
2022/07/17 07:59:03;;;;;;;2.77;2.37;;;;;;;21.84;47.15;99023.09;5060438;28;20216;-69
2022/07/17 08:01:29;;;;;;;2.50;2.30;;;;;;;21.85;46.82;99027.47;5064606;28;20225;-69
2022/07/17 08:03:56;;;;;;;2.90;2.30;;;;;;;21.88;48.29;99027.16;5065495;28;20220;-71
2022/07/17 08:06:23;;;;;;;3.00;2.73;;;;;;;21.97;49.00;99021.69;5061475;28;20237;-69
2022/07/17 08:08:49;;;;;;;3.07;2.77;;;;;;;22.05;48.40;99028.97;5054811;28;20650;-69
2022/07/17 08:11:16;;;;;;;2.83;2.63;;;;;;;22.22;46.61;99037.03;5063333;28;20861;-70
2022/07/17 08:13:44;;;;;;;3.30;2.43;;;;;;;22.24;46.86;99029.63;5064958;28;20208;-70
2022/07/17 08:16:10;;;;;;;3.40;2.77;;;;;;;22.31;46.77;99030.69;5065594;28;20215;-69
2022/07/17 08:18:37;;;;;;;5.60;2.90;;;;;;;22.35;46.28;99029.38;5062122;28;20674;-69
2022/07/17 08:21:03;;;;;;;3.00;2.80;;;;;;;22.41;46.74;99028.75;5052106;28;20240;-70
2022/07/17 08:23:30;;;;;;;3.60;2.57;;;;;;;22.35;46.19;99034.78;5053565;28;20239;-70
2022/07/17 08:25:57;;;;;;;2.80;2.43;;;;;;;22.27;47.07;99028.47;5052558;28;20216;-69
2022/07/17 08:28:23;;;;;;;2.87;2.53;;;;;;;22.39;46.77;99033.47;5045763;28;20247;-70
2022/07/17 08:30:52;;;;;;;2.60;2.40;;;;;;;22.62;47.00;99029.25;5053170;28;20298;-69
2022/07/17 08:33:18;;;;;;;3.70;2.77;;;;;;;22.55;45.24;99030.88;5052912;28;20220;-71
2022/07/17 08:35:45;;;;;;;4.70;2.93;;;;;;;22.62;46.49;99023.84;5053037;28;20693;-69
2022/07/17 08:38:11;;;;;;;2.50;2.30;;;;;;;22.80;47.43;99027.31;5053325;28;20207;-70
2022/07/17 08:40:39;;;;;;;4.87;2.63;;;;;;;22.96;46.68;99022.03;5050508;28;20215;-71
2022/07/17 08:43:07;;;;;;;2.70;2.50;;;;;;;23.10;45.89;99024.09;5045464;28;20302;-70
2022/07/17 08:45:35;;;;;;;2.60;2.40;;;;;;;23.12;44.47;99015.84;5053137;28;20212;-69
2022/07/17 08:48:03;;;;;;;2.60;2.40;;;;;;;23.14;44.82;99020.06;5052178;28;20247;-70
2022/07/17 08:50:32;;;;;;;2.90;2.60;;;;;;;23.21;44.36;99021.13;5052907;28;20570;-70
2022/07/17 08:52:59;;;;;;;2.73;2.43;;;;;;;23.38;44.93;99022.88;5052342;28;20216;-68
2022/07/17 08:55:26;;;;;;;2.50;2.30;;;;;;;23.39;44.84;99019.16;5051712;28;20216;-68
2022/07/17 08:57:52;;;;;;;2.90;2.60;;;;;;;23.43;45.31;99027.78;5044439;28;20586;-68
2022/07/17 09:00:22;;;;;;;3.53;2.10;;;;;;;23.51;44.93;99020.53;5051774;28;20212;-69
2022/07/17 09:02:57;;;;;;;2.70;2.50;;;;;;;23.85;43.06;99032.06;5051973;28;20223;-68
2022/07/17 09:05:28;;;;;;;2.70;2.30;;;;;;;23.72;43.62;99029.00;5051951;28;20212;-69
2022/07/17 09:07:55;;;;;;;4.57;2.80;;;;;;;23.89;43.53;99028.03;5051064;28;20236;-68
2022/07/17 09:10:34;;;;;;;2.50;2.30;;;;;;;23.79;43.98;99027.34;5051621;28;20220;-68
2022/07/17 09:13:01;;;;;;;2.80;2.37;;;;;;;23.90;43.09;99024.31;5052163;28;20208;-69
2022/07/17 09:15:28;;;;;;;2.40;2.20;;;;;;;23.78;42.83;99022.94;5052260;28;20216;-68
2022/07/17 09:17:56;;;;;;;2.57;2.33;;;;;;;23.76;43.12;99011.47;5051690;28;20219;-69
2022/07/17 09:20:24;;;;;;;3.60;2.40;;;;;;;23.90;44.99;99018.09;5051128;28;20685;-68
2022/07/17 09:22:59;;;;;;;1.93;1.83;;;;;;;24.17;41.55;99021.31;5051419;28;20211;-68
2022/07/17 09:25:39;;;;;;;2.47;2.27;;;;;;;24.28;42.15;99018.25;5046351;28;20214;-68
2022/07/17 09:28:08;;;;;;;2.30;2.17;;;;;;;24.30;41.34;99021.63;5050083;28;20735;-68
2022/07/17 09:30:37;;;;;;;2.30;2.20;;;;;;;24.22;41.29;99024.34;5051991;28;20216;-69
2022/07/17 09:33:07;;;;;;;2.33;2.03;;;;;;;24.51;40.87;99031.91;5049825;28;20216;-68
2022/07/17 09:35:35;;;;;;;2.23;2.03;;;;;;;24.52;40.55;99025.47;5051963;28;20583;-68
2022/07/17 09:38:01;;;;;;;2.27;2.00;;;;;;;24.49;40.75;99013.16;5052086;28;20212;-69
2022/07/17 09:43:12;;;;;;;2.20;2.00;;;;;;;24.68;41.85;99015.50;5047391;28;20305;-69
2022/07/17 09:45:39;;;;;;;3.00;1.90;;;;;;;24.73;39.65;99005.00;5051812;28;20281;-69
2022/07/17 09:48:06;;;;;;;2.40;2.20;;;;;;;24.92;38.83;98998.38;5051043;28;20727;-69
2022/07/17 09:50:34;;;;;;;2.40;2.25;;;;;;;24.94;40.11;98993.63;5051546;28;20591;-69
2022/07/17 09:53:03;;;;;;;2.38;1.80;;;;;;;25.03;39.75;99004.22;5051475;28;20220;-69
2022/07/17 09:55:31;;;;;;;3.58;1.95;;;;;;;25.23;37.93;99005.47;5050963;28;20219;-69
2022/07/17 09:58:00;;;;;;;2.67;2.17;;;;;;;25.12;39.56;98996.91;5052276;28;20208;-71
2022/07/17 10:00:27;;;;;;;3.50;2.00;;;;;;;25.22;37.60;99003.78;5050155;28;20216;-71
2022/07/17 10:02:53;;;;;;;2.40;2.10;;;;;;;25.33;39.60;99010.69;5051226;28;20216;-71
2022/07/17 10:05:20;;;;;;;2.00;1.90;;;;;;;25.35;37.76;99014.91;5051552;28;20688;-71
2022/07/17 10:07:48;;;;;;;2.30;2.08;;;;;;;25.46;36.62;99006.41;5052010;28;20254;-71
2022/07/17 10:10:18;;;;;;;2.17;1.60;;;;;;;25.41;36.52;99006.09;5050523;28;20223;-70
2022/07/17 10:12:47;;;;;;;1.58;1.48;;;;;;;25.26;nan;99007.88;5051992;28;20212;-72
2022/07/17 10:15:14;;;;;;;1.70;1.60;;;;;;;25.36;35.28;99000.34;5049198;28;20208;-71
2022/07/17 10:17:41;;;;;;;2.00;1.58;;;;;;;25.37;34.91;98996.63;5050907;28;20678;-71
2022/07/17 10:20:10;;;;;;;1.60;1.50;;;;;;;25.40;35.90;98996.28;5051290;28;20224;-72
2022/07/17 10:22:47;;;;;;;1.75;1.65;;;;;;;25.56;37.16;98998.03;5050151;28;20367;-71
2022/07/17 10:25:16;;;;;;;2.23;1.83;;;;;;;25.73;34.07;98992.31;5047191;28;20673;-72
2022/07/17 10:27:48;;;;;;;2.38;1.80;;;;;;;25.66;34.50;98994.06;5051987;28;20242;-72
2022/07/17 10:30:21;;;;;;;1.65;1.50;;;;;;;25.56;33.36;98985.38;5045449;28;20223;-72
2022/07/17 10:32:52;;;;;;;1.70;1.60;;;;;;;25.47;32.00;98980.19;5050821;28;20216;-72
2022/07/17 10:35:19;;;;;;;1.60;1.50;;;;;;;25.55;33.94;98989.06;5045003;28;20670;-71
2022/07/17 10:37:45;;;;;;;2.00;1.67;;;;;;;25.63;34.88;98978.19;5051425;28;20216;-71
2022/07/17 10:40:18;;;;;;;1.80;1.67;;;;;;;25.74;36.07;98985.91;5050619;28;20216;-71
2022/07/17 10:43:05;;;;;;;1.90;1.80;;;;;;;26.06;34.62;98984.81;5051419;28;20223;-71
2022/07/17 10:45:39;;;;;;;2.67;1.63;;;;;;;26.14;34.49;98984.78;5051553;28;20212;-72
2022/07/17 10:48:07;;;;;;;2.15;1.60;;;;;;;26.29;33.14;98978.34;5050922;28;20302;-71
2022/07/17 10:50:37;;;;;;;1.60;1.50;;;;;;;26.26;33.25;98973.28;5051055;28;20227;-69
2022/07/17 10:53:10;;;;;;;2.35;1.50;;;;;;;26.26;32.18;98973.28;5050106;28;20248;-70
2022/07/17 10:55:39;;;;;;;1.73;1.63;;;;;;;26.03;32.11;98971.66;5050187;28;20215;-70
2022/07/17 10:58:17;;;;;;;1.98;1.67;;;;;;;25.98;32.47;98974.88;5051659;28;20234;-69
2022/07/17 11:00:44;;;;;;;1.80;1.70;;;;;;;26.10;33.35;98978.84;5051183;28;20220;-69
2022/07/17 11:03:12;;;;;;;1.60;1.50;;;;;;;26.21;32.73;98978.41;5050720;28;20220;-69
2022/07/17 11:05:39;;;;;;;1.80;1.70;;;;;;;26.32;32.49;98964.41;5047510;28;20212;-69
2022/07/17 11:08:09;;;;;;;1.70;1.60;;;;;;;26.51;31.69;98976.59;5054831;28;20240;-69
2022/07/17 11:10:36;;;;;;;1.80;1.52;;;;;;;26.63;31.49;98967.84;5053331;28;20258;-68
2022/07/17 11:13:09;;;;;;;1.73;1.63;;;;;;;26.74;33.04;98963.81;5054710;28;20223;-68
2022/07/17 11:15:44;;;;;;;1.98;1.70;;;;;;;26.83;32.99;98966.22;5054904;28;20212;-68
2022/07/17 11:18:13;;;;;;;1.60;1.50;;;;;;;26.94;32.58;98967.66;5052474;28;20220;-68
2022/07/17 11:20:48;;;;;;;2.13;1.63;;;;;;;26.95;31.34;98959.28;5054174;28;20258;-69
2022/07/17 11:23:15;;;;;;;1.70;1.60;;;;;;;26.99;33.22;98955.19;5053269;28;20212;-72
2022/07/17 11:25:52;;;;;;;1.67;1.58;;;;;;;27.08;32.34;98958.63;5053354;28;20224;-75
2022/07/17 11:28:34;;;;;;;1.83;1.73;;;;;;;27.08;32.86;98954.06;5054821;28;20246;-73
2022/07/17 11:31:04;;;;;;;2.05;1.55;;;;;;;27.05;31.51;98943.56;5055350;28;20226;-71
2022/07/17 11:33:30;;;;;;;1.60;1.50;;;;;;;27.08;31.19;98948.63;5055265;28;20216;-73
2022/07/17 11:35:57;;;;;;;1.90;1.70;;;;;;;27.14;31.17;98947.88;5054936;28;20223;-73
2022/07/17 11:38:29;;;;;;;2.17;1.60;;;;;;;27.31;32.45;98948.50;5055132;28;20299;-72
2022/07/17 11:40:56;;;;;;;1.80;1.60;;;;;;;27.52;33.16;98949.38;5055233;28;20212;-73